sensor_id;sensor_type;location;lat;lon;timestamp;temperature;humidity
5683;DHT22;2864;49.220;8.654;2023-08-07T00:00:27;12.30;99.90
5683;DHT22;2864;49.220;8.654;2023-08-07T00:02:52;12.30;99.90
5683;DHT22;2864;49.220;8.654;2023-08-07T00:05:18;13.70;99.90
5683;DHT22;2864;49.220;8.654;2023-08-07T00:07:43;12.30;99.90
5683;DHT22;2864;49.220;8.654;2023-08-07T00:10:09;12.30;99.90
5683;DHT22;2864;49.220;8.654;2023-08-07T00:12:35;12.30;99.90
5683;DHT22;2864;49.220;8.654;2023-08-07T00:15:02;12.30;99.90
5683;DHT22;2864;49.220;8.654;2023-08-07T00:17:28;12.40;99.90
5683;DHT22;2864;49.220;8.654;2023-08-07T00:19:53;12.40;99.90
5683;DHT22;2864;49.220;8.654;2023-08-07T00:22:19;12.30;99.90
5683;DHT22;2864;49.220;8.654;2023-08-07T00:24:44;12.30;99.90
5683;DHT22;2864;49.220;8.654;2023-08-07T00:27:10;12.40;99.90
5683;DHT22;2864;49.220;8.654;2023-08-07T00:29:37;13.40;99.90
5683;DHT22;2864;49.220;8.654;2023-08-07T00:32:03;12.30;99.90
5683;DHT22;2864;49.220;8.654;2023-08-07T00:34:29;12.40;99.90
5683;DHT22;2864;49.220;8.654;2023-08-07T00:36:55;12.40;99.90
5683;DHT22;2864;49.220;8.654;2023-08-07T00:39:20;12.40;99.90
5683;DHT22;2864;49.220;8.654;2023-08-07T00:41:46;13.70;99.90
5683;DHT22;2864;49.220;8.654;2023-08-07T00:44:12;12.30;99.90
5683;DHT22;2864;49.220;8.654;2023-08-07T00:46:38;12.30;99.90
5683;DHT22;2864;49.220;8.654;2023-08-07T00:49:07;12.40;99.90
5683;DHT22;2864;49.220;8.654;2023-08-07T00:51:33;13.30;99.90
5683;DHT22;2864;49.220;8.654;2023-08-07T00:54:00;13.50;99.90
5683;DHT22;2864;49.220;8.654;2023-08-07T00:56:28;12.40;99.90
5683;DHT22;2864;49.220;8.654;2023-08-07T00:58:54;12.40;99.90
5683;DHT22;2864;49.220;8.654;2023-08-07T01:01:20;12.40;99.90
5683;DHT22;2864;49.220;8.654;2023-08-07T01:03:45;12.30;99.90
5683;DHT22;2864;49.220;8.654;2023-08-07T01:06:11;12.30;99.90
5683;DHT22;2864;49.220;8.654;2023-08-07T01:08:37;12.30;99.90
5683;DHT22;2864;49.220;8.654;2023-08-07T01:16:46;12.30;99.90
5683;DHT22;2864;49.220;8.654;2023-08-07T01:19:39;12.30;99.90
5683;DHT22;2864;49.220;8.654;2023-08-07T01:22:14;12.30;99.90
5683;DHT22;2864;49.220;8.654;2023-08-07T01:24:42;12.30;99.90
5683;DHT22;2864;49.220;8.654;2023-08-07T01:32:27;12.30;99.90
5683;DHT22;2864;49.220;8.654;2023-08-07T01:34:54;12.20;99.90
5683;DHT22;2864;49.220;8.654;2023-08-07T01:37:23;12.20;99.90
5683;DHT22;2864;49.220;8.654;2023-08-07T01:39:49;12.20;99.90
5683;DHT22;2864;49.220;8.654;2023-08-07T01:42:16;12.20;99.90
5683;DHT22;2864;49.220;8.654;2023-08-07T01:44:42;12.20;99.90
5683;DHT22;2864;49.220;8.654;2023-08-07T01:47:08;12.20;99.90
5683;DHT22;2864;49.220;8.654;2023-08-07T01:49:33;12.10;99.90
5683;DHT22;2864;49.220;8.654;2023-08-07T01:51:59;12.70;99.90
5683;DHT22;2864;49.220;8.654;2023-08-07T01:54:24;12.10;99.90
5683;DHT22;2864;49.220;8.654;2023-08-07T01:56:50;12.10;99.90
5683;DHT22;2864;49.220;8.654;2023-08-07T01:59:15;12.10;99.90
5683;DHT22;2864;49.220;8.654;2023-08-07T02:01:41;12.10;99.90
5683;DHT22;2864;49.220;8.654;2023-08-07T02:04:06;12.10;99.90
5683;DHT22;2864;49.220;8.654;2023-08-07T02:06:32;12.10;99.90
5683;DHT22;2864;49.220;8.654;2023-08-07T02:08:58;12.00;99.90
5683;DHT22;2864;49.220;8.654;2023-08-07T02:11:23;12.00;99.90
5683;DHT22;2864;49.220;8.654;2023-08-07T02:13:49;12.00;99.90
5683;DHT22;2864;49.220;8.654;2023-08-07T02:16:14;12.00;99.90
5683;DHT22;2864;49.220;8.654;2023-08-07T02:18:40;12.00;99.90
5683;DHT22;2864;49.220;8.654;2023-08-07T02:21:05;12.10;99.90
5683;DHT22;2864;49.220;8.654;2023-08-07T02:23:31;12.10;99.90
5683;DHT22;2864;49.220;8.654;2023-08-07T02:25:56;13.00;99.90
5683;DHT22;2864;49.220;8.654;2023-08-07T02:28:22;12.10;99.90
5683;DHT22;2864;49.220;8.654;2023-08-07T02:30:47;13.60;99.90
5683;DHT22;2864;49.220;8.654;2023-08-07T02:33:14;12.20;99.90
5683;DHT22;2864;49.220;8.654;2023-08-07T02:35:40;13.00;99.90
5683;DHT22;2864;49.220;8.654;2023-08-07T02:38:05;12.20;99.90
5683;DHT22;2864;49.220;8.654;2023-08-07T02:40:31;12.80;99.90
5683;DHT22;2864;49.220;8.654;2023-08-07T02:42:56;12.70;99.90
5683;DHT22;2864;49.220;8.654;2023-08-07T02:45:22;12.20;99.90
5683;DHT22;2864;49.220;8.654;2023-08-07T02:47:47;12.80;99.90
5683;DHT22;2864;49.220;8.654;2023-08-07T02:50:13;12.80;99.90
5683;DHT22;2864;49.220;8.654;2023-08-07T02:52:38;12.30;99.90
5683;DHT22;2864;49.220;8.654;2023-08-07T02:55:04;12.30;99.90
5683;DHT22;2864;49.220;8.654;2023-08-07T02:57:30;12.30;99.90
5683;DHT22;2864;49.220;8.654;2023-08-07T02:59:55;12.30;99.90
5683;DHT22;2864;49.220;8.654;2023-08-07T03:02:21;12.30;99.90
5683;DHT22;2864;49.220;8.654;2023-08-07T03:04:47;12.30;99.90
5683;DHT22;2864;49.220;8.654;2023-08-07T03:07:12;12.30;99.90
5683;DHT22;2864;49.220;8.654;2023-08-07T03:09:38;12.30;99.90
5683;DHT22;2864;49.220;8.654;2023-08-07T03:12:03;12.30;99.90
5683;DHT22;2864;49.220;8.654;2023-08-07T03:14:30;12.20;99.90
5683;DHT22;2864;49.220;8.654;2023-08-07T03:16:55;12.30;99.90
5683;DHT22;2864;49.220;8.654;2023-08-07T03:19:21;12.30;99.90
5683;DHT22;2864;49.220;8.654;2023-08-07T03:21:47;12.30;99.90
5683;DHT22;2864;49.220;8.654;2023-08-07T03:24:12;13.80;99.90
5683;DHT22;2864;49.220;8.654;2023-08-07T03:26:38;12.20;99.90
5683;DHT22;2864;49.220;8.654;2023-08-07T03:29:04;12.20;99.90
5683;DHT22;2864;49.220;8.654;2023-08-07T03:31:29;12.30;99.90
5683;DHT22;2864;49.220;8.654;2023-08-07T03:33:55;12.20;99.90
5683;DHT22;2864;49.220;8.654;2023-08-07T03:36:21;12.30;99.90
5683;DHT22;2864;49.220;8.654;2023-08-07T03:38:46;12.30;99.90
5683;DHT22;2864;49.220;8.654;2023-08-07T03:41:12;12.30;99.90
5683;DHT22;2864;49.220;8.654;2023-08-07T03:43:37;12.30;99.90
5683;DHT22;2864;49.220;8.654;2023-08-07T03:46:03;12.30;99.90
5683;DHT22;2864;49.220;8.654;2023-08-07T03:48:29;12.20;99.90
5683;DHT22;2864;49.220;8.654;2023-08-07T03:51:04;12.20;99.90
5683;DHT22;2864;49.220;8.654;2023-08-07T03:53:30;12.30;99.90
5683;DHT22;2864;49.220;8.654;2023-08-07T03:55:56;12.30;99.90
5683;DHT22;2864;49.220;8.654;2023-08-07T03:58:21;12.30;99.90
5683;DHT22;2864;49.220;8.654;2023-08-07T04:00:47;12.30;99.90
5683;DHT22;2864;49.220;8.654;2023-08-07T04:03:12;12.20;99.90
5683;DHT22;2864;49.220;8.654;2023-08-07T04:05:38;13.10;99.90
5683;DHT22;2864;49.220;8.654;2023-08-07T04:08:04;12.40;99.90
5683;DHT22;2864;49.220;8.654;2023-08-07T04:10:29;12.30;99.90
5683;DHT22;2864;49.220;8.654;2023-08-07T04:12:55;12.30;99.90
5683;DHT22;2864;49.220;8.654;2023-08-07T04:15:20;12.30;99.90
5683;DHT22;2864;49.220;8.654;2023-08-07T04:17:46;12.30;99.90
5683;DHT22;2864;49.220;8.654;2023-08-07T04:20:11;12.30;99.90
5683;DHT22;2864;49.220;8.654;2023-08-07T04:22:37;12.30;99.90
5683;DHT22;2864;49.220;8.654;2023-08-07T04:25:02;12.90;99.90
5683;DHT22;2864;49.220;8.654;2023-08-07T04:27:28;12.40;99.90
5683;DHT22;2864;49.220;8.654;2023-08-07T04:29:54;12.90;99.90
5683;DHT22;2864;49.220;8.654;2023-08-07T04:32:19;12.40;99.90
5683;DHT22;2864;49.220;8.654;2023-08-07T04:34:45;12.40;99.90
5683;DHT22;2864;49.220;8.654;2023-08-07T04:37:10;12.40;99.90
5683;DHT22;2864;49.220;8.654;2023-08-07T04:39:36;12.40;99.90
5683;DHT22;2864;49.220;8.654;2023-08-07T04:42:02;12.40;99.90
5683;DHT22;2864;49.220;8.654;2023-08-07T04:44:27;12.40;99.90
5683;DHT22;2864;49.220;8.654;2023-08-07T04:46:53;12.40;99.90
5683;DHT22;2864;49.220;8.654;2023-08-07T04:49:18;12.30;99.90
5683;DHT22;2864;49.220;8.654;2023-08-07T04:51:44;12.30;99.90
5683;DHT22;2864;49.220;8.654;2023-08-07T04:54:09;12.30;99.90
5683;DHT22;2864;49.220;8.654;2023-08-07T04:56:35;12.30;99.90
5683;DHT22;2864;49.220;8.654;2023-08-07T04:59:01;12.30;99.90
5683;DHT22;2864;49.220;8.654;2023-08-07T05:01:27;12.30;99.90
5683;DHT22;2864;49.220;8.654;2023-08-07T05:03:52;12.30;99.90
5683;DHT22;2864;49.220;8.654;2023-08-07T05:06:18;12.30;99.90
5683;DHT22;2864;49.220;8.654;2023-08-07T05:08:44;12.40;99.90
5683;DHT22;2864;49.220;8.654;2023-08-07T05:11:10;12.30;99.90
5683;DHT22;2864;49.220;8.654;2023-08-07T05:13:35;12.30;99.90
5683;DHT22;2864;49.220;8.654;2023-08-07T05:16:01;13.10;99.90
5683;DHT22;2864;49.220;8.654;2023-08-07T05:18:26;12.30;99.90
5683;DHT22;2864;49.220;8.654;2023-08-07T05:20:52;12.30;99.90
5683;DHT22;2864;49.220;8.654;2023-08-07T05:23:17;12.30;99.90
5683;DHT22;2864;49.220;8.654;2023-08-07T05:25:46;12.30;99.90
5683;DHT22;2864;49.220;8.654;2023-08-07T05:28:12;12.30;99.90
5683;DHT22;2864;49.220;8.654;2023-08-07T05:30:38;12.30;99.90
5683;DHT22;2864;49.220;8.654;2023-08-07T05:33:03;13.20;99.90
5683;DHT22;2864;49.220;8.654;2023-08-07T05:35:29;12.40;99.90
5683;DHT22;2864;49.220;8.654;2023-08-07T05:37:54;12.40;99.90
5683;DHT22;2864;49.220;8.654;2023-08-07T05:40:20;12.40;99.90
5683;DHT22;2864;49.220;8.654;2023-08-07T05:42:45;12.40;99.90
5683;DHT22;2864;49.220;8.654;2023-08-07T05:45:11;12.40;99.90
5683;DHT22;2864;49.220;8.654;2023-08-07T05:47:36;12.50;99.90
5683;DHT22;2864;49.220;8.654;2023-08-07T05:50:02;12.50;99.90
5683;DHT22;2864;49.220;8.654;2023-08-07T05:52:28;12.50;99.90
5683;DHT22;2864;49.220;8.654;2023-08-07T05:54:53;12.50;99.90
5683;DHT22;2864;49.220;8.654;2023-08-07T05:57:19;12.60;99.90
5683;DHT22;2864;49.220;8.654;2023-08-07T05:59:45;12.60;99.90
5683;DHT22;2864;49.220;8.654;2023-08-07T06:02:10;12.60;99.90
5683;DHT22;2864;49.220;8.654;2023-08-07T06:04:37;12.60;99.90
5683;DHT22;2864;49.220;8.654;2023-08-07T06:07:02;12.70;99.90
5683;DHT22;2864;49.220;8.654;2023-08-07T06:09:28;12.70;99.90
5683;DHT22;2864;49.220;8.654;2023-08-07T06:11:53;12.70;99.90
5683;DHT22;2864;49.220;8.654;2023-08-07T06:14:19;12.80;99.90
5683;DHT22;2864;49.220;8.654;2023-08-07T06:16:44;12.80;99.90
5683;DHT22;2864;49.220;8.654;2023-08-07T06:19:10;12.80;99.90
5683;DHT22;2864;49.220;8.654;2023-08-07T06:21:36;12.90;99.90
5683;DHT22;2864;49.220;8.654;2023-08-07T06:39:26;13.20;99.90
5683;DHT22;2864;49.220;8.654;2023-08-07T06:41:51;13.30;99.90
5683;DHT22;2864;49.220;8.654;2023-08-07T06:44:17;13.30;99.90
5683;DHT22;2864;49.220;8.654;2023-08-07T06:50:05;13.30;99.90
5683;DHT22;2864;49.220;8.654;2023-08-07T06:52:30;13.40;99.90
5683;DHT22;2864;49.220;8.654;2023-08-07T06:54:56;13.30;99.90
5683;DHT22;2864;49.220;8.654;2023-08-07T06:57:22;13.30;99.90
5683;DHT22;2864;49.220;8.654;2023-08-07T06:59:47;13.40;99.90
5683;DHT22;2864;49.220;8.654;2023-08-07T07:02:13;13.40;99.90
5683;DHT22;2864;49.220;8.654;2023-08-07T07:04:38;13.30;99.90
5683;DHT22;2864;49.220;8.654;2023-08-07T07:07:04;13.30;99.90
5683;DHT22;2864;49.220;8.654;2023-08-07T07:09:29;13.30;99.90
5683;DHT22;2864;49.220;8.654;2023-08-07T07:11:55;13.40;99.90
5683;DHT22;2864;49.220;8.654;2023-08-07T07:14:21;13.40;99.90
5683;DHT22;2864;49.220;8.654;2023-08-07T07:16:47;13.40;99.90
5683;DHT22;2864;49.220;8.654;2023-08-07T07:19:13;13.40;99.90
5683;DHT22;2864;49.220;8.654;2023-08-07T07:21:38;13.40;99.90
5683;DHT22;2864;49.220;8.654;2023-08-07T07:24:04;13.40;99.90
5683;DHT22;2864;49.220;8.654;2023-08-07T07:26:30;13.50;99.90
5683;DHT22;2864;49.220;8.654;2023-08-07T07:28:56;13.50;99.90
5683;DHT22;2864;49.220;8.654;2023-08-07T07:31:21;13.60;99.90
5683;DHT22;2864;49.220;8.654;2023-08-07T07:33:47;13.70;99.90
5683;DHT22;2864;49.220;8.654;2023-08-07T07:36:15;13.80;99.90
5683;DHT22;2864;49.220;8.654;2023-08-07T07:38:41;13.90;99.90
5683;DHT22;2864;49.220;8.654;2023-08-07T07:41:06;14.00;99.90
5683;DHT22;2864;49.220;8.654;2023-08-07T07:43:35;14.00;99.90
5683;DHT22;2864;49.220;8.654;2023-08-07T07:46:01;14.10;99.90
5683;DHT22;2864;49.220;8.654;2023-08-07T07:48:26;14.20;99.90
5683;DHT22;2864;49.220;8.654;2023-08-07T07:50:58;14.20;99.90
5683;DHT22;2864;49.220;8.654;2023-08-07T07:53:24;14.10;99.90
5683;DHT22;2864;49.220;8.654;2023-08-07T07:55:50;14.00;99.90
5683;DHT22;2864;49.220;8.654;2023-08-07T07:58:15;14.00;99.90
5683;DHT22;2864;49.220;8.654;2023-08-07T08:00:41;14.10;99.90
5683;DHT22;2864;49.220;8.654;2023-08-07T08:03:07;14.20;99.90
5683;DHT22;2864;49.220;8.654;2023-08-07T08:05:33;14.20;99.90
5683;DHT22;2864;49.220;8.654;2023-08-07T08:08:00;14.20;99.90
5683;DHT22;2864;49.220;8.654;2023-08-07T08:10:26;14.30;99.90
5683;DHT22;2864;49.220;8.654;2023-08-07T08:12:54;14.30;99.90
5683;DHT22;2864;49.220;8.654;2023-08-07T08:15:19;14.30;99.90
5683;DHT22;2864;49.220;8.654;2023-08-07T08:17:48;14.50;99.90
5683;DHT22;2864;49.220;8.654;2023-08-07T08:20:14;14.60;99.90
5683;DHT22;2864;49.220;8.654;2023-08-07T08:22:46;14.70;99.90
5683;DHT22;2864;49.220;8.654;2023-08-07T08:25:11;15.00;99.90
5683;DHT22;2864;49.220;8.654;2023-08-07T08:27:38;15.10;99.90
5683;DHT22;2864;49.220;8.654;2023-08-07T08:30:04;15.40;99.90
5683;DHT22;2864;49.220;8.654;2023-08-07T08:32:30;15.40;99.90
5683;DHT22;2864;49.220;8.654;2023-08-07T08:34:55;15.50;99.90
5683;DHT22;2864;49.220;8.654;2023-08-07T08:37:21;15.80;99.90
5683;DHT22;2864;49.220;8.654;2023-08-07T08:39:47;15.60;99.90
5683;DHT22;2864;49.220;8.654;2023-08-07T08:42:13;15.60;99.90
5683;DHT22;2864;49.220;8.654;2023-08-07T08:44:40;15.90;99.90
5683;DHT22;2864;49.220;8.654;2023-08-07T08:47:08;15.70;99.90
5683;DHT22;2864;49.220;8.654;2023-08-07T08:49:45;15.60;99.90
5683;DHT22;2864;49.220;8.654;2023-08-07T08:52:11;15.80;99.90
5683;DHT22;2864;49.220;8.654;2023-08-07T08:54:38;15.80;99.90
5683;DHT22;2864;49.220;8.654;2023-08-07T08:57:06;15.80;99.90
5683;DHT22;2864;49.220;8.654;2023-08-07T08:59:32;15.90;99.90
5683;DHT22;2864;49.220;8.654;2023-08-07T09:01:59;15.70;99.90
5683;DHT22;2864;49.220;8.654;2023-08-07T09:04:24;16.00;99.90
5683;DHT22;2864;49.220;8.654;2023-08-07T09:06:50;16.20;99.90
5683;DHT22;2864;49.220;8.654;2023-08-07T09:09:17;16.30;99.90
5683;DHT22;2864;49.220;8.654;2023-08-07T09:11:45;16.40;99.90
5683;DHT22;2864;49.220;8.654;2023-08-07T09:14:16;17.00;99.90
5683;DHT22;2864;49.220;8.654;2023-08-07T09:16:51;16.00;99.90
5683;DHT22;2864;49.220;8.654;2023-08-07T09:19:17;16.40;99.90
5683;DHT22;2864;49.220;8.654;2023-08-07T09:21:43;16.50;99.40
5683;DHT22;2864;49.220;8.654;2023-08-07T09:24:08;17.10;99.20
5683;DHT22;2864;49.220;8.654;2023-08-07T09:26:34;17.00;98.60
5683;DHT22;2864;49.220;8.654;2023-08-07T09:29:01;17.40;98.40
5683;DHT22;2864;49.220;8.654;2023-08-07T09:31:27;17.60;97.40
5683;DHT22;2864;49.220;8.654;2023-08-07T09:33:53;17.70;96.90
5683;DHT22;2864;49.220;8.654;2023-08-07T09:36:18;17.70;96.60
5683;DHT22;2864;49.220;8.654;2023-08-07T09:38:49;17.80;96.30
5683;DHT22;2864;49.220;8.654;2023-08-07T09:41:18;17.60;95.80
5683;DHT22;2864;49.220;8.654;2023-08-07T09:43:44;17.70;94.90
5683;DHT22;2864;49.220;8.654;2023-08-07T09:46:10;17.60;95.30
5683;DHT22;2864;49.220;8.654;2023-08-07T09:48:43;18.00;95.40
5683;DHT22;2864;49.220;8.654;2023-08-07T09:51:09;18.00;95.20
5683;DHT22;2864;49.220;8.654;2023-08-07T09:53:35;18.00;94.50
5683;DHT22;2864;49.220;8.654;2023-08-07T09:56:01;18.00;94.60
5683;DHT22;2864;49.220;8.654;2023-08-07T09:58:26;17.70;94.70
5683;DHT22;2864;49.220;8.654;2023-08-07T10:00:53;17.80;94.80
5683;DHT22;2864;49.220;8.654;2023-08-07T10:03:20;17.10;94.90
5683;DHT22;2864;49.220;8.654;2023-08-07T10:05:46;16.90;95.00
5683;DHT22;2864;49.220;8.654;2023-08-07T10:08:12;17.10;94.90
5683;DHT22;2864;49.220;8.654;2023-08-07T10:10:38;17.20;95.70
5683;DHT22;2864;49.220;8.654;2023-08-07T10:13:04;17.50;95.60
5683;DHT22;2864;49.220;8.654;2023-08-07T10:15:32;18.20;95.40
5683;DHT22;2864;49.220;8.654;2023-08-07T10:17:58;17.60;94.90
5683;DHT22;2864;49.220;8.654;2023-08-07T10:20:28;17.40;95.30
5683;DHT22;2864;49.220;8.654;2023-08-07T10:23:00;17.70;95.40
5683;DHT22;2864;49.220;8.654;2023-08-07T10:25:27;17.70;96.00
5683;DHT22;2864;49.220;8.654;2023-08-07T10:27:55;17.30;96.60
5683;DHT22;2864;49.220;8.654;2023-08-07T10:30:23;17.20;96.60
5683;DHT22;2864;49.220;8.654;2023-08-07T10:32:50;17.10;96.70
5683;DHT22;2864;49.220;8.654;2023-08-07T10:35:24;16.90;97.10
5683;DHT22;2864;49.220;8.654;2023-08-07T10:37:51;17.00;96.70
5683;DHT22;2864;49.220;8.654;2023-08-07T10:40:18;17.10;96.90
5683;DHT22;2864;49.220;8.654;2023-08-07T10:45:34;17.00;97.00
5683;DHT22;2864;49.220;8.654;2023-08-07T10:48:13;16.80;98.00
5683;DHT22;2864;49.220;8.654;2023-08-07T10:53:34;17.20;98.10
5683;DHT22;2864;49.220;8.654;2023-08-07T10:56:10;17.20;98.20
5683;DHT22;2864;49.220;8.654;2023-08-07T10:58:38;17.30;98.60
5683;DHT22;2864;49.220;8.654;2023-08-07T11:03:55;16.90;99.00
5683;DHT22;2864;49.220;8.654;2023-08-07T11:06:26;16.90;99.70
5683;DHT22;2864;49.220;8.654;2023-08-07T11:08:52;16.80;99.20
5683;DHT22;2864;49.220;8.654;2023-08-07T11:11:18;16.80;99.00
5683;DHT22;2864;49.220;8.654;2023-08-07T11:13:43;16.60;99.90
5683;DHT22;2864;49.220;8.654;2023-08-07T11:16:09;16.60;99.30
5683;DHT22;2864;49.220;8.654;2023-08-07T11:18:35;16.70;99.80
5683;DHT22;2864;49.220;8.654;2023-08-07T11:21:07;16.70;99.90
5683;DHT22;2864;49.220;8.654;2023-08-07T11:23:33;16.80;99.90
5683;DHT22;2864;49.220;8.654;2023-08-07T11:25:58;16.80;99.90
5683;DHT22;2864;49.220;8.654;2023-08-07T11:28:24;16.60;99.90
5683;DHT22;2864;49.220;8.654;2023-08-07T11:30:51;16.50;99.90
5683;DHT22;2864;49.220;8.654;2023-08-07T11:33:18;16.80;99.90
5683;DHT22;2864;49.220;8.654;2023-08-07T11:35:45;16.80;99.90
5683;DHT22;2864;49.220;8.654;2023-08-07T11:38:10;16.70;99.90
5683;DHT22;2864;49.220;8.654;2023-08-07T11:40:36;16.80;99.90
5683;DHT22;2864;49.220;8.654;2023-08-07T11:43:02;17.00;99.90
5683;DHT22;2864;49.220;8.654;2023-08-07T11:45:28;18.60;99.90
5683;DHT22;2864;49.220;8.654;2023-08-07T11:47:54;17.40;99.90
5683;DHT22;2864;49.220;8.654;2023-08-07T11:50:22;17.60;99.90
5683;DHT22;2864;49.220;8.654;2023-08-07T11:52:48;17.90;99.90
5683;DHT22;2864;49.220;8.654;2023-08-07T11:55:17;18.50;99.90
5683;DHT22;2864;49.220;8.654;2023-08-07T11:57:48;17.80;99.90
5683;DHT22;2864;49.220;8.654;2023-08-07T12:00:14;17.70;99.90
5683;DHT22;2864;49.220;8.654;2023-08-07T12:02:43;18.10;99.90
5683;DHT22;2864;49.220;8.654;2023-08-07T12:05:10;18.40;99.90
5683;DHT22;2864;49.220;8.654;2023-08-07T12:07:39;18.40;99.90
5683;DHT22;2864;49.220;8.654;2023-08-07T12:10:11;18.30;98.50
5683;DHT22;2864;49.220;8.654;2023-08-07T12:12:37;18.60;99.10
5683;DHT22;2864;49.220;8.654;2023-08-07T12:15:07;18.70;98.60
5683;DHT22;2864;49.220;8.654;2023-08-07T12:17:33;18.70;97.90
5683;DHT22;2864;49.220;8.654;2023-08-07T12:19:58;19.40;97.80
5683;DHT22;2864;49.220;8.654;2023-08-07T12:22:27;19.70;97.00
5683;DHT22;2864;49.220;8.654;2023-08-07T12:24:53;19.70;96.40
5683;DHT22;2864;49.220;8.654;2023-08-07T12:27:19;20.20;97.20
5683;DHT22;2864;49.220;8.654;2023-08-07T12:29:45;19.60;96.80
5683;DHT22;2864;49.220;8.654;2023-08-07T12:32:11;19.50;95.70
5683;DHT22;2864;49.220;8.654;2023-08-07T12:34:37;19.50;95.60
5683;DHT22;2864;49.220;8.654;2023-08-07T12:37:06;19.20;94.50
5683;DHT22;2864;49.220;8.654;2023-08-07T12:39:31;19.20;95.80
5683;DHT22;2864;49.220;8.654;2023-08-07T12:41:58;19.20;96.00
5683;DHT22;2864;49.220;8.654;2023-08-07T12:44:23;19.10;96.20
5683;DHT22;2864;49.220;8.654;2023-08-07T12:46:49;19.80;95.80
5683;DHT22;2864;49.220;8.654;2023-08-07T12:49:15;19.60;95.30
5683;DHT22;2864;49.220;8.654;2023-08-07T12:51:41;20.10;94.90
5683;DHT22;2864;49.220;8.654;2023-08-07T12:54:06;20.40;94.30
5683;DHT22;2864;49.220;8.654;2023-08-07T12:56:32;21.00;94.00
5683;DHT22;2864;49.220;8.654;2023-08-07T12:58:57;21.30;91.60
5683;DHT22;2864;49.220;8.654;2023-08-07T13:01:23;20.60;91.70
5683;DHT22;2864;49.220;8.654;2023-08-07T13:03:48;20.50;92.30
5683;DHT22;2864;49.220;8.654;2023-08-07T13:06:14;21.50;91.00
5683;DHT22;2864;49.220;8.654;2023-08-07T13:08:39;21.30;89.40
5683;DHT22;2864;49.220;8.654;2023-08-07T13:11:06;21.90;90.30
5683;DHT22;2864;49.220;8.654;2023-08-07T13:13:31;22.00;90.60
5683;DHT22;2864;49.220;8.654;2023-08-07T13:15:57;21.20;90.20
5683;DHT22;2864;49.220;8.654;2023-08-07T13:18:23;21.40;90.50
5683;DHT22;2864;49.220;8.654;2023-08-07T13:20:49;21.00;90.90
5683;DHT22;2864;49.220;8.654;2023-08-07T13:23:14;20.70;91.10
5683;DHT22;2864;49.220;8.654;2023-08-07T13:25:40;21.00;91.20
5683;DHT22;2864;49.220;8.654;2023-08-07T13:28:06;20.90;91.40
5683;DHT22;2864;49.220;8.654;2023-08-07T13:30:35;20.70;90.60
5683;DHT22;2864;49.220;8.654;2023-08-07T13:33:01;21.00;90.40
5683;DHT22;2864;49.220;8.654;2023-08-07T13:35:26;21.10;90.20
5683;DHT22;2864;49.220;8.654;2023-08-07T13:37:52;20.90;89.00
5683;DHT22;2864;49.220;8.654;2023-08-07T13:40:17;20.40;90.00
5683;DHT22;2864;49.220;8.654;2023-08-07T13:42:45;20.30;88.20
5683;DHT22;2864;49.220;8.654;2023-08-07T13:45:11;20.00;88.10
5683;DHT22;2864;49.220;8.654;2023-08-07T13:47:37;20.10;87.30
5683;DHT22;2864;49.220;8.654;2023-08-07T13:50:03;20.40;89.00
5683;DHT22;2864;49.220;8.654;2023-08-07T13:52:29;21.70;88.60
5683;DHT22;2864;49.220;8.654;2023-08-07T13:54:55;21.40;86.20
5683;DHT22;2864;49.220;8.654;2023-08-07T13:57:20;22.30;84.70
5683;DHT22;2864;49.220;8.654;2023-08-07T13:59:46;22.60;83.30
5683;DHT22;2864;49.220;8.654;2023-08-07T14:02:11;22.00;81.90
5683;DHT22;2864;49.220;8.654;2023-08-07T14:04:37;21.90;80.50
5683;DHT22;2864;49.220;8.654;2023-08-07T14:07:03;21.80;79.60
5683;DHT22;2864;49.220;8.654;2023-08-07T14:09:29;20.80;80.70
5683;DHT22;2864;49.220;8.654;2023-08-07T14:11:54;20.30;81.00
5683;DHT22;2864;49.220;8.654;2023-08-07T14:14:22;20.50;81.60
5683;DHT22;2864;49.220;8.654;2023-08-07T14:16:48;19.90;79.60
5683;DHT22;2864;49.220;8.654;2023-08-07T14:19:13;20.30;79.80
5683;DHT22;2864;49.220;8.654;2023-08-07T14:21:39;21.50;79.20
5683;DHT22;2864;49.220;8.654;2023-08-07T14:24:05;25.40;77.50
5683;DHT22;2864;49.220;8.654;2023-08-07T14:26:31;28.00;72.20
5683;DHT22;2864;49.220;8.654;2023-08-07T14:28:57;29.50;62.80
5683;DHT22;2864;49.220;8.654;2023-08-07T14:31:22;31.60;60.50
5683;DHT22;2864;49.220;8.654;2023-08-07T14:33:48;31.90;58.60
5683;DHT22;2864;49.220;8.654;2023-08-07T14:36:13;30.20;57.90
5683;DHT22;2864;49.220;8.654;2023-08-07T14:38:40;29.30;56.60
5683;DHT22;2864;49.220;8.654;2023-08-07T14:41:06;26.80;59.10
5683;DHT22;2864;49.220;8.654;2023-08-07T14:43:31;24.60;59.90
5683;DHT22;2864;49.220;8.654;2023-08-07T14:45:58;23.40;61.40
5683;DHT22;2864;49.220;8.654;2023-08-07T14:48:24;23.10;62.90
5683;DHT22;2864;49.220;8.654;2023-08-07T14:50:49;23.00;64.50
5683;DHT22;2864;49.220;8.654;2023-08-07T14:53:15;26.50;62.10
5683;DHT22;2864;49.220;8.654;2023-08-07T14:55:40;28.80;59.20
5683;DHT22;2864;49.220;8.654;2023-08-07T14:58:07;28.50;59.60
5683;DHT22;2864;49.220;8.654;2023-08-07T15:00:32;29.70;58.20
5683;DHT22;2864;49.220;8.654;2023-08-07T15:03:00;29.20;58.50
5683;DHT22;2864;49.220;8.654;2023-08-07T15:05:25;28.50;58.80
5683;DHT22;2864;49.220;8.654;2023-08-07T15:07:51;28.60;58.40
5683;DHT22;2864;49.220;8.654;2023-08-07T15:10:16;24.80;61.50
5683;DHT22;2864;49.220;8.654;2023-08-07T15:12:42;25.20;61.30
5683;DHT22;2864;49.220;8.654;2023-08-07T15:15:08;25.30;63.80
5683;DHT22;2864;49.220;8.654;2023-08-07T15:17:34;28.60;59.50
5683;DHT22;2864;49.220;8.654;2023-08-07T15:20:00;29.40;58.00
5683;DHT22;2864;49.220;8.654;2023-08-07T15:22:25;26.60;59.40
5683;DHT22;2864;49.220;8.654;2023-08-07T15:24:51;24.60;62.40
5683;DHT22;2864;49.220;8.654;2023-08-07T15:27:16;23.60;63.30
5683;DHT22;2864;49.220;8.654;2023-08-07T15:29:44;22.40;65.50
5683;DHT22;2864;49.220;8.654;2023-08-07T15:32:11;22.30;68.00
5683;DHT22;2864;49.220;8.654;2023-08-07T15:34:39;20.90;68.40
5683;DHT22;2864;49.220;8.654;2023-08-07T15:37:04;20.60;69.10
5683;DHT22;2864;49.220;8.654;2023-08-07T15:39:30;20.10;69.00
5683;DHT22;2864;49.220;8.654;2023-08-07T15:41:56;20.20;70.60
5683;DHT22;2864;49.220;8.654;2023-08-07T15:44:22;19.70;70.40
5683;DHT22;2864;49.220;8.654;2023-08-07T15:46:47;19.60;70.80
5683;DHT22;2864;49.220;8.654;2023-08-07T15:49:13;21.00;73.60
5683;DHT22;2864;49.220;8.654;2023-08-07T15:51:38;21.10;75.00
5683;DHT22;2864;49.220;8.654;2023-08-07T15:54:04;20.10;73.20
5683;DHT22;2864;49.220;8.654;2023-08-07T15:56:29;22.80;69.10
5683;DHT22;2864;49.220;8.654;2023-08-07T15:58:55;22.10;68.30
5683;DHT22;2864;49.220;8.654;2023-08-07T16:01:21;21.80;69.40
5683;DHT22;2864;49.220;8.654;2023-08-07T16:03:46;21.10;69.70
5683;DHT22;2864;49.220;8.654;2023-08-07T16:06:12;20.60;70.10
5683;DHT22;2864;49.220;8.654;2023-08-07T16:08:39;20.30;70.40
5683;DHT22;2864;49.220;8.654;2023-08-07T16:11:05;21.50;72.60
5683;DHT22;2864;49.220;8.654;2023-08-07T16:13:31;21.30;73.30
5683;DHT22;2864;49.220;8.654;2023-08-07T16:15:56;20.80;72.60
5683;DHT22;2864;49.220;8.654;2023-08-07T16:18:22;20.50;71.20
5683;DHT22;2864;49.220;8.654;2023-08-07T16:20:48;23.20;70.80
5683;DHT22;2864;49.220;8.654;2023-08-07T16:23:13;26.00;67.40
5683;DHT22;2864;49.220;8.654;2023-08-07T16:25:39;26.70;64.00
5683;DHT22;2864;49.220;8.654;2023-08-07T16:28:05;28.40;63.00
5683;DHT22;2864;49.220;8.654;2023-08-07T16:30:32;27.30;62.90
5683;DHT22;2864;49.220;8.654;2023-08-07T16:32:58;27.10;61.60